Wisconsin Rapids, WI

6:27 PM CDT on October 01, 2016 (GMT -0500)
South East Grand Rapids, WI | | Change Station

Elev 1073 ft 44.34 °N, 89.77 °W | Updated 25 seconds ago

Overcast
Overcast
59.2 °F
Feels Like 59.2 °F
N
0.0
Wind Variable Wind from SW
Gusts 0.0 mph

Today
High -- | Low -- °F
--% Chance of Precip.
Yesterday
High -- | Low -- °F
Precip. -- in
Pressure 30.09 in
Visibility 10.0 miles
Clouds Overcast 3200 ft
Dew Point 56 °F
Humidity 90%
Rainfall 0.00 in
Snow Depth Not available.
6:57 AM 6:38 PM
New Moon, 1% visible
METAR KISW 012254Z AUTO 07003KT 10SM OVC032 16/12 A3008 RMK AO2 SLP188 T01610122 $
Pressure 30.09 in
Visibility 10.0 miles
Clouds Overcast 3200 ft
Dew Point 56 °F
Humidity 90%
Rainfall 0.00 in
Snow Depth Not available.
6:57 AM 6:38 PM
New Moon, 1% visible
METAR KISW 012254Z AUTO 07003KT 10SM OVC032 16/12 A3008 RMK AO2 SLP188 T01610122 $

10-Day Weather Forecast

Almanac

Astronomy

Oct. 01, 2016 Rise Set
Actual Time
Civil Twilight
Nautical Twilight
Astronomical Twilight
Moon
Length of Visible Light
Length of Day
Tomorrow will be .
, % of the Moon is Illuminated

Today's Extremes

State Highs State Lows

Community

WunderPhotos

Upload Photos

1,943,049 photos uploaded!

WunderBlog® & News

Nearby

Air Quality

  Air Quality AQ Index Pollutant
Not available.

Snow Depth

Station Depth Elevation

Earthquake Activity

City Distance Mag. Time & Date
Minimum magnitude displayed is 2.5.

Coastal Water Temperatures

Place Temperature

Stations

Nearby Weather Stations

Station Location Temp. Windchill Dew Point Humidity Wind Precip. Elev Updated Type
                   

Watches & Warnings

There are currently no watches in effect.